sensor_id;sensor_type;location;lat;lon;timestamp;P1;durP1;ratioP1;P2;durP2;ratioP2
4525;SDS011;2275;52.208;8.804;2022-07-23T00:00:15;18.70;;;11.32;;
4525;SDS011;2275;52.208;8.804;2022-07-23T00:02:42;21.05;;;12.70;;
4525;SDS011;2275;52.208;8.804;2022-07-23T00:05:09;17.33;;;11.75;;
4525;SDS011;2275;52.208;8.804;2022-07-23T00:07:37;22.73;;;10.85;;
4525;SDS011;2275;52.208;8.804;2022-07-23T00:10:04;15.65;;;11.60;;
4525;SDS011;2275;52.208;8.804;2022-07-23T00:12:31;14.60;;;11.30;;
4525;SDS011;2275;52.208;8.804;2022-07-23T00:14:58;13.57;;;9.85;;
4525;SDS011;2275;52.208;8.804;2022-07-23T00:17:26;14.55;;;10.40;;
4525;SDS011;2275;52.208;8.804;2022-07-23T00:19:53;20.10;;;12.40;;
4525;SDS011;2275;52.208;8.804;2022-07-23T00:22:22;18.20;;;10.25;;
4525;SDS011;2275;52.208;8.804;2022-07-23T00:24:50;16.80;;;11.05;;
4525;SDS011;2275;52.208;8.804;2022-07-23T00:27:17;16.80;;;10.82;;
4525;SDS011;2275;52.208;8.804;2022-07-23T00:29:44;17.25;;;10.82;;
4525;SDS011;2275;52.208;8.804;2022-07-23T00:32:11;23.75;;;13.20;;
4525;SDS011;2275;52.208;8.804;2022-07-23T00:34:38;17.48;;;11.15;;
4525;SDS011;2275;52.208;8.804;2022-07-23T00:37:06;14.57;;;10.45;;
4525;SDS011;2275;52.208;8.804;2022-07-23T00:39:33;15.13;;;10.35;;
4525;SDS011;2275;52.208;8.804;2022-07-23T00:42:02;15.65;;;10.68;;
4525;SDS011;2275;52.208;8.804;2022-07-23T00:44:30;16.58;;;10.38;;
4525;SDS011;2275;52.208;8.804;2022-07-23T00:46:57;17.17;;;10.55;;
4525;SDS011;2275;52.208;8.804;2022-07-23T00:49:26;20.85;;;11.12;;
4525;SDS011;2275;52.208;8.804;2022-07-23T00:51:53;13.23;;;9.70;;
4525;SDS011;2275;52.208;8.804;2022-07-23T00:54:22;17.83;;;10.95;;
4525;SDS011;2275;52.208;8.804;2022-07-23T00:56:48;16.55;;;9.95;;
4525;SDS011;2275;52.208;8.804;2022-07-23T00:59:15;16.17;;;10.30;;
4525;SDS011;2275;52.208;8.804;2022-07-23T01:01:42;12.57;;;10.00;;
4525;SDS011;2275;52.208;8.804;2022-07-23T01:04:10;16.23;;;10.63;;
4525;SDS011;2275;52.208;8.804;2022-07-23T01:06:38;20.02;;;10.60;;
4525;SDS011;2275;52.208;8.804;2022-07-23T01:09:05;14.23;;;10.40;;
4525;SDS011;2275;52.208;8.804;2022-07-23T01:11:33;16.33;;;9.75;;
4525;SDS011;2275;52.208;8.804;2022-07-23T01:14:15;14.43;;;9.57;;
4525;SDS011;2275;52.208;8.804;2022-07-23T01:16:43;14.95;;;10.30;;
4525;SDS011;2275;52.208;8.804;2022-07-23T01:19:10;14.13;;;10.32;;
4525;SDS011;2275;52.208;8.804;2022-07-23T01:21:39;17.67;;;10.35;;
4525;SDS011;2275;52.208;8.804;2022-07-23T01:24:06;15.60;;;10.73;;
4525;SDS011;2275;52.208;8.804;2022-07-23T01:26:33;19.02;;;10.90;;
4525;SDS011;2275;52.208;8.804;2022-07-23T01:29:00;14.73;;;10.75;;
4525;SDS011;2275;52.208;8.804;2022-07-23T01:31:28;16.55;;;10.73;;
4525;SDS011;2275;52.208;8.804;2022-07-23T01:33:55;16.87;;;10.50;;
4525;SDS011;2275;52.208;8.804;2022-07-23T01:36:22;14.95;;;10.20;;
4525;SDS011;2275;52.208;8.804;2022-07-23T01:38:50;16.10;;;9.90;;
4525;SDS011;2275;52.208;8.804;2022-07-23T01:41:17;18.62;;;9.88;;
4525;SDS011;2275;52.208;8.804;2022-07-23T01:43:44;14.70;;;9.52;;
4525;SDS011;2275;52.208;8.804;2022-07-23T01:46:12;18.08;;;9.15;;
4525;SDS011;2275;52.208;8.804;2022-07-23T01:48:39;15.70;;;9.95;;
4525;SDS011;2275;52.208;8.804;2022-07-23T01:51:06;17.00;;;9.80;;
4525;SDS011;2275;52.208;8.804;2022-07-23T01:53:35;17.27;;;10.05;;
4525;SDS011;2275;52.208;8.804;2022-07-23T01:56:02;13.62;;;10.18;;
4525;SDS011;2275;52.208;8.804;2022-07-23T01:58:30;12.48;;;9.63;;
4525;SDS011;2275;52.208;8.804;2022-07-23T02:00:57;16.52;;;9.68;;
4525;SDS011;2275;52.208;8.804;2022-07-23T02:03:26;14.60;;;9.73;;
4525;SDS011;2275;52.208;8.804;2022-07-23T02:05:53;15.98;;;9.80;;
4525;SDS011;2275;52.208;8.804;2022-07-23T02:08:21;16.30;;;10.40;;
4525;SDS011;2275;52.208;8.804;2022-07-23T02:10:49;19.87;;;10.40;;
4525;SDS011;2275;52.208;8.804;2022-07-23T02:13:17;15.93;;;10.48;;
4525;SDS011;2275;52.208;8.804;2022-07-23T02:15:45;19.62;;;10.57;;
4525;SDS011;2275;52.208;8.804;2022-07-23T02:18:12;17.92;;;10.85;;
4525;SDS011;2275;52.208;8.804;2022-07-23T02:20:40;17.85;;;11.43;;
4525;SDS011;2275;52.208;8.804;2022-07-23T02:23:07;16.60;;;11.63;;
4525;SDS011;2275;52.208;8.804;2022-07-23T02:25:35;17.52;;;11.15;;
4525;SDS011;2275;52.208;8.804;2022-07-23T02:28:02;28.75;;;11.55;;
4525;SDS011;2275;52.208;8.804;2022-07-23T02:30:29;17.80;;;11.88;;
4525;SDS011;2275;52.208;8.804;2022-07-23T02:32:57;17.05;;;11.57;;
4525;SDS011;2275;52.208;8.804;2022-07-23T02:35:24;19.87;;;12.15;;
4525;SDS011;2275;52.208;8.804;2022-07-23T02:37:51;23.80;;;12.70;;
4525;SDS011;2275;52.208;8.804;2022-07-23T02:40:18;21.40;;;13.45;;
4525;SDS011;2275;52.208;8.804;2022-07-23T02:42:46;19.02;;;11.80;;
4525;SDS011;2275;52.208;8.804;2022-07-23T02:45:13;19.15;;;12.13;;
4525;SDS011;2275;52.208;8.804;2022-07-23T02:47:40;19.77;;;13.05;;
4525;SDS011;2275;52.208;8.804;2022-07-23T02:50:07;20.60;;;12.60;;
4525;SDS011;2275;52.208;8.804;2022-07-23T02:52:35;22.23;;;14.50;;
4525;SDS011;2275;52.208;8.804;2022-07-23T02:55:02;20.25;;;14.35;;
4525;SDS011;2275;52.208;8.804;2022-07-23T02:57:30;20.02;;;13.45;;
4525;SDS011;2275;52.208;8.804;2022-07-23T02:59:57;22.58;;;13.50;;
4525;SDS011;2275;52.208;8.804;2022-07-23T03:02:24;29.70;;;13.70;;
4525;SDS011;2275;52.208;8.804;2022-07-23T03:04:52;23.65;;;13.07;;
4525;SDS011;2275;52.208;8.804;2022-07-23T03:07:18;24.20;;;13.32;;
4525;SDS011;2275;52.208;8.804;2022-07-23T03:09:46;27.35;;;14.35;;
4525;SDS011;2275;52.208;8.804;2022-07-23T03:12:13;28.50;;;13.68;;
4525;SDS011;2275;52.208;8.804;2022-07-23T03:14:41;23.23;;;13.38;;
4525;SDS011;2275;52.208;8.804;2022-07-23T03:17:08;21.58;;;13.90;;
4525;SDS011;2275;52.208;8.804;2022-07-23T03:19:36;28.10;;;14.30;;
4525;SDS011;2275;52.208;8.804;2022-07-23T03:22:04;22.35;;;13.35;;
4525;SDS011;2275;52.208;8.804;2022-07-23T03:24:31;18.60;;;12.73;;
4525;SDS011;2275;52.208;8.804;2022-07-23T03:27:04;24.75;;;13.18;;
4525;SDS011;2275;52.208;8.804;2022-07-23T03:29:31;24.23;;;13.45;;
4525;SDS011;2275;52.208;8.804;2022-07-23T03:31:58;26.73;;;13.75;;
4525;SDS011;2275;52.208;8.804;2022-07-23T03:34:25;17.65;;;12.65;;
4525;SDS011;2275;52.208;8.804;2022-07-23T03:36:53;16.48;;;12.73;;
4525;SDS011;2275;52.208;8.804;2022-07-23T03:39:20;24.40;;;13.52;;
4525;SDS011;2275;52.208;8.804;2022-07-23T03:41:47;22.62;;;13.07;;
4525;SDS011;2275;52.208;8.804;2022-07-23T03:44:14;22.48;;;13.10;;
4525;SDS011;2275;52.208;8.804;2022-07-23T03:46:41;20.48;;;13.80;;
4525;SDS011;2275;52.208;8.804;2022-07-23T03:49:08;24.70;;;13.60;;
4525;SDS011;2275;52.208;8.804;2022-07-23T03:51:36;20.45;;;13.15;;
4525;SDS011;2275;52.208;8.804;2022-07-23T03:54:03;22.92;;;13.23;;
4525;SDS011;2275;52.208;8.804;2022-07-23T03:56:30;22.33;;;12.60;;
4525;SDS011;2275;52.208;8.804;2022-07-23T03:58:57;24.00;;;14.65;;
4525;SDS011;2275;52.208;8.804;2022-07-23T04:01:24;23.55;;;14.02;;
4525;SDS011;2275;52.208;8.804;2022-07-23T04:03:51;32.03;;;14.10;;
4525;SDS011;2275;52.208;8.804;2022-07-23T04:06:18;20.12;;;14.30;;
4525;SDS011;2275;52.208;8.804;2022-07-23T04:08:45;19.75;;;12.85;;
4525;SDS011;2275;52.208;8.804;2022-07-23T04:11:13;32.97;;;13.65;;
4525;SDS011;2275;52.208;8.804;2022-07-23T04:13:40;21.90;;;13.30;;
4525;SDS011;2275;52.208;8.804;2022-07-23T04:16:07;25.58;;;12.63;;
4525;SDS011;2275;52.208;8.804;2022-07-23T04:18:34;22.75;;;13.02;;
4525;SDS011;2275;52.208;8.804;2022-07-23T04:21:01;20.10;;;13.35;;
4525;SDS011;2275;52.208;8.804;2022-07-23T04:23:30;20.30;;;12.80;;
4525;SDS011;2275;52.208;8.804;2022-07-23T04:25:56;25.12;;;12.82;;
4525;SDS011;2275;52.208;8.804;2022-07-23T04:28:23;23.48;;;12.57;;
4525;SDS011;2275;52.208;8.804;2022-07-23T04:30:51;21.92;;;12.98;;
4525;SDS011;2275;52.208;8.804;2022-07-23T04:33:19;23.42;;;13.48;;
4525;SDS011;2275;52.208;8.804;2022-07-23T04:35:46;17.62;;;12.73;;
4525;SDS011;2275;52.208;8.804;2022-07-23T04:38:13;22.27;;;13.35;;
4525;SDS011;2275;52.208;8.804;2022-07-23T04:40:40;19.10;;;13.52;;
4525;SDS011;2275;52.208;8.804;2022-07-23T04:43:07;20.90;;;12.77;;
4525;SDS011;2275;52.208;8.804;2022-07-23T04:45:34;19.45;;;11.73;;
4525;SDS011;2275;52.208;8.804;2022-07-23T04:48:02;20.62;;;12.70;;
4525;SDS011;2275;52.208;8.804;2022-07-23T04:50:29;23.55;;;12.25;;
4525;SDS011;2275;52.208;8.804;2022-07-23T04:52:57;17.87;;;11.98;;
4525;SDS011;2275;52.208;8.804;2022-07-23T04:55:24;25.70;;;12.80;;
4525;SDS011;2275;52.208;8.804;2022-07-23T04:57:51;21.08;;;12.20;;
4525;SDS011;2275;52.208;8.804;2022-07-23T05:00:18;26.12;;;13.73;;
4525;SDS011;2275;52.208;8.804;2022-07-23T05:02:45;21.35;;;13.60;;
4525;SDS011;2275;52.208;8.804;2022-07-23T05:05:13;23.70;;;14.18;;
4525;SDS011;2275;52.208;8.804;2022-07-23T05:07:40;18.37;;;13.20;;
4525;SDS011;2275;52.208;8.804;2022-07-23T05:10:08;21.85;;;14.63;;
4525;SDS011;2275;52.208;8.804;2022-07-23T05:12:36;22.08;;;14.38;;
4525;SDS011;2275;52.208;8.804;2022-07-23T05:15:03;22.33;;;13.43;;
4525;SDS011;2275;52.208;8.804;2022-07-23T05:17:31;19.50;;;12.60;;
4525;SDS011;2275;52.208;8.804;2022-07-23T05:19:59;19.10;;;13.80;;
4525;SDS011;2275;52.208;8.804;2022-07-23T05:22:26;20.60;;;13.52;;
4525;SDS011;2275;52.208;8.804;2022-07-23T05:24:54;24.42;;;14.13;;
4525;SDS011;2275;52.208;8.804;2022-07-23T05:27:21;23.52;;;14.23;;
4525;SDS011;2275;52.208;8.804;2022-07-23T05:29:48;25.70;;;14.68;;
4525;SDS011;2275;52.208;8.804;2022-07-23T05:32:15;21.00;;;12.98;;
4525;SDS011;2275;52.208;8.804;2022-07-23T05:34:43;24.63;;;14.27;;
4525;SDS011;2275;52.208;8.804;2022-07-23T05:37:10;22.23;;;13.15;;
4525;SDS011;2275;52.208;8.804;2022-07-23T05:39:37;24.67;;;14.80;;
4525;SDS011;2275;52.208;8.804;2022-07-23T05:42:04;20.92;;;13.40;;
4525;SDS011;2275;52.208;8.804;2022-07-23T05:44:31;22.27;;;13.68;;
4525;SDS011;2275;52.208;8.804;2022-07-23T05:46:59;26.00;;;14.27;;
4525;SDS011;2275;52.208;8.804;2022-07-23T05:49:26;21.27;;;14.63;;
4525;SDS011;2275;52.208;8.804;2022-07-23T05:51:53;24.02;;;12.57;;
4525;SDS011;2275;52.208;8.804;2022-07-23T05:54:20;18.20;;;12.88;;
4525;SDS011;2275;52.208;8.804;2022-07-23T05:56:47;16.15;;;12.48;;
4525;SDS011;2275;52.208;8.804;2022-07-23T05:59:15;21.17;;;12.60;;
4525;SDS011;2275;52.208;8.804;2022-07-23T06:01:42;19.62;;;12.52;;
4525;SDS011;2275;52.208;8.804;2022-07-23T06:04:09;22.87;;;13.10;;
4525;SDS011;2275;52.208;8.804;2022-07-23T06:06:36;18.10;;;12.05;;
4525;SDS011;2275;52.208;8.804;2022-07-23T06:09:03;21.08;;;12.88;;
4525;SDS011;2275;52.208;8.804;2022-07-23T06:11:31;21.73;;;13.43;;
4525;SDS011;2275;52.208;8.804;2022-07-23T06:13:58;19.10;;;12.35;;
4525;SDS011;2275;52.208;8.804;2022-07-23T06:16:26;19.23;;;12.95;;
4525;SDS011;2275;52.208;8.804;2022-07-23T06:18:53;19.75;;;13.85;;
4525;SDS011;2275;52.208;8.804;2022-07-23T06:21:20;25.35;;;13.13;;
4525;SDS011;2275;52.208;8.804;2022-07-23T06:23:47;14.90;;;11.75;;
4525;SDS011;2275;52.208;8.804;2022-07-23T06:26:15;15.70;;;11.73;;
4525;SDS011;2275;52.208;8.804;2022-07-23T06:28:42;17.70;;;12.98;;
4525;SDS011;2275;52.208;8.804;2022-07-23T06:31:10;22.42;;;12.80;;
4525;SDS011;2275;52.208;8.804;2022-07-23T06:33:38;22.98;;;12.43;;
4525;SDS011;2275;52.208;8.804;2022-07-23T06:36:06;19.25;;;12.40;;
4525;SDS011;2275;52.208;8.804;2022-07-23T06:38:35;16.02;;;10.60;;
4525;SDS011;2275;52.208;8.804;2022-07-23T06:41:06;17.12;;;10.52;;
4525;SDS011;2275;52.208;8.804;2022-07-23T06:43:33;20.27;;;10.00;;
4525;SDS011;2275;52.208;8.804;2022-07-23T06:46:01;16.33;;;9.73;;
4525;SDS011;2275;52.208;8.804;2022-07-23T06:48:28;18.10;;;9.00;;
4525;SDS011;2275;52.208;8.804;2022-07-23T06:50:55;10.93;;;8.20;;
4525;SDS011;2275;52.208;8.804;2022-07-23T06:53:23;14.50;;;8.65;;
4525;SDS011;2275;52.208;8.804;2022-07-23T06:55:50;13.65;;;8.75;;
4525;SDS011;2275;52.208;8.804;2022-07-23T06:58:17;14.25;;;8.25;;
4525;SDS011;2275;52.208;8.804;2022-07-23T07:00:46;12.98;;;8.48;;
4525;SDS011;2275;52.208;8.804;2022-07-23T07:03:13;17.23;;;8.60;;
4525;SDS011;2275;52.208;8.804;2022-07-23T07:05:40;14.25;;;7.82;;
4525;SDS011;2275;52.208;8.804;2022-07-23T07:08:07;9.30;;;7.03;;
4525;SDS011;2275;52.208;8.804;2022-07-23T07:10:34;13.43;;;6.18;;
4525;SDS011;2275;52.208;8.804;2022-07-23T07:13:01;9.18;;;6.72;;
4525;SDS011;2275;52.208;8.804;2022-07-23T07:15:28;10.75;;;6.40;;
4525;SDS011;2275;52.208;8.804;2022-07-23T07:17:55;10.05;;;6.68;;
4525;SDS011;2275;52.208;8.804;2022-07-23T07:20:22;11.12;;;7.50;;
4525;SDS011;2275;52.208;8.804;2022-07-23T07:22:49;11.55;;;6.40;;
4525;SDS011;2275;52.208;8.804;2022-07-23T07:25:17;9.52;;;5.20;;
4525;SDS011;2275;52.208;8.804;2022-07-23T07:27:45;8.38;;;5.62;;
4525;SDS011;2275;52.208;8.804;2022-07-23T07:30:12;7.65;;;4.20;;
4525;SDS011;2275;52.208;8.804;2022-07-23T07:32:40;6.22;;;4.47;;
4525;SDS011;2275;52.208;8.804;2022-07-23T07:35:07;5.68;;;3.60;;
4525;SDS011;2275;52.208;8.804;2022-07-23T07:37:36;6.50;;;4.00;;
4525;SDS011;2275;52.208;8.804;2022-07-23T07:40:04;7.25;;;4.65;;
4525;SDS011;2275;52.208;8.804;2022-07-23T07:42:32;5.75;;;4.60;;
4525;SDS011;2275;52.208;8.804;2022-07-23T07:45:00;10.65;;;4.45;;
4525;SDS011;2275;52.208;8.804;2022-07-23T07:47:27;12.18;;;4.85;;
4525;SDS011;2275;52.208;8.804;2022-07-23T07:49:54;10.98;;;5.40;;
4525;SDS011;2275;52.208;8.804;2022-07-23T07:52:23;6.63;;;4.23;;
4525;SDS011;2275;52.208;8.804;2022-07-23T07:54:50;7.57;;;4.30;;
4525;SDS011;2275;52.208;8.804;2022-07-23T07:57:17;11.15;;;4.60;;
4525;SDS011;2275;52.208;8.804;2022-07-23T07:59:45;8.75;;;4.82;;
4525;SDS011;2275;52.208;8.804;2022-07-23T08:02:12;7.80;;;5.10;;
4525;SDS011;2275;52.208;8.804;2022-07-23T08:04:40;7.85;;;5.25;;
4525;SDS011;2275;52.208;8.804;2022-07-23T08:07:08;6.78;;;4.30;;
4525;SDS011;2275;52.208;8.804;2022-07-23T08:09:35;7.47;;;4.50;;
4525;SDS011;2275;52.208;8.804;2022-07-23T08:12:02;7.65;;;4.28;;
4525;SDS011;2275;52.208;8.804;2022-07-23T08:14:31;6.70;;;4.00;;
4525;SDS011;2275;52.208;8.804;2022-07-23T08:17:00;5.57;;;3.97;;
4525;SDS011;2275;52.208;8.804;2022-07-23T08:19:27;5.90;;;4.10;;
4525;SDS011;2275;52.208;8.804;2022-07-23T08:21:54;7.05;;;4.20;;
4525;SDS011;2275;52.208;8.804;2022-07-23T08:24:21;6.47;;;4.57;;
4525;SDS011;2275;52.208;8.804;2022-07-23T08:26:48;12.00;;;4.60;;
4525;SDS011;2275;52.208;8.804;2022-07-23T08:29:15;7.30;;;4.30;;
4525;SDS011;2275;52.208;8.804;2022-07-23T08:31:44;6.50;;;4.40;;
4525;SDS011;2275;52.208;8.804;2022-07-23T08:34:11;8.55;;;4.40;;
4525;SDS011;2275;52.208;8.804;2022-07-23T08:36:38;5.87;;;4.60;;
4525;SDS011;2275;52.208;8.804;2022-07-23T08:39:05;11.30;;;4.77;;
4525;SDS011;2275;52.208;8.804;2022-07-23T08:41:32;6.47;;;4.40;;
4525;SDS011;2275;52.208;8.804;2022-07-23T08:43:59;8.07;;;4.47;;
4525;SDS011;2275;52.208;8.804;2022-07-23T08:46:27;6.32;;;3.90;;
4525;SDS011;2275;52.208;8.804;2022-07-23T08:48:54;7.77;;;5.10;;
4525;SDS011;2275;52.208;8.804;2022-07-23T08:51:21;7.90;;;5.47;;
4525;SDS011;2275;52.208;8.804;2022-07-23T08:53:49;8.80;;;4.60;;
4525;SDS011;2275;52.208;8.804;2022-07-23T08:56:16;7.77;;;4.50;;
4525;SDS011;2275;52.208;8.804;2022-07-23T08:58:43;5.53;;;4.40;;
4525;SDS011;2275;52.208;8.804;2022-07-23T09:01:10;6.23;;;4.37;;
4525;SDS011;2275;52.208;8.804;2022-07-23T09:03:37;6.90;;;4.27;;
4525;SDS011;2275;52.208;8.804;2022-07-23T09:06:05;7.63;;;5.00;;
4525;SDS011;2275;52.208;8.804;2022-07-23T09:08:34;4.70;;;3.47;;
4525;SDS011;2275;52.208;8.804;2022-07-23T09:11:02;5.40;;;3.73;;
4525;SDS011;2275;52.208;8.804;2022-07-23T09:13:32;8.77;;;4.30;;
4525;SDS011;2275;52.208;8.804;2022-07-23T09:16:02;5.80;;;4.40;;
4525;SDS011;2275;52.208;8.804;2022-07-23T09:18:33;7.10;;;4.00;;
4525;SDS011;2275;52.208;8.804;2022-07-23T09:21:11;8.27;;;3.47;;
4525;SDS011;2275;52.208;8.804;2022-07-23T09:23:56;6.80;;;3.77;;
4525;SDS011;2275;52.208;8.804;2022-07-23T09:26:27;5.60;;;3.83;;
4525;SDS011;2275;52.208;8.804;2022-07-23T09:28:55;8.90;;;3.70;;
4525;SDS011;2275;52.208;8.804;2022-07-23T09:31:32;6.83;;;3.77;;
4525;SDS011;2275;52.208;8.804;2022-07-23T09:34:17;4.10;;;3.13;;
4525;SDS011;2275;52.208;8.804;2022-07-23T09:36:43;6.80;;;3.70;;
4525;SDS011;2275;52.208;8.804;2022-07-23T09:39:11;4.60;;;3.43;;
4525;SDS011;2275;52.208;8.804;2022-07-23T09:41:43;6.80;;;3.87;;
4525;SDS011;2275;52.208;8.804;2022-07-23T09:44:14;4.57;;;3.10;;
4525;SDS011;2275;52.208;8.804;2022-07-23T09:46:40;4.83;;;3.10;;
4525;SDS011;2275;52.208;8.804;2022-07-23T09:49:10;7.03;;;2.70;;
4525;SDS011;2275;52.208;8.804;2022-07-23T09:51:43;6.00;;;3.13;;
4525;SDS011;2275;52.208;8.804;2022-07-23T09:54:43;4.50;;;2.80;;
4525;SDS011;2275;52.208;8.804;2022-07-23T09:56:55;5.20;;;2.77;;
4525;SDS011;2275;52.208;8.804;2022-07-23T09:59:23;3.93;;;2.77;;
4525;SDS011;2275;52.208;8.804;2022-07-23T10:01:50;7.00;;;3.17;;
4525;SDS011;2275;52.208;8.804;2022-07-23T10:04:17;6.53;;;3.23;;
4525;SDS011;2275;52.208;8.804;2022-07-23T10:06:45;4.33;;;2.50;;
4525;SDS011;2275;52.208;8.804;2022-07-23T10:09:12;5.27;;;3.07;;
4525;SDS011;2275;52.208;8.804;2022-07-23T10:11:40;9.83;;;3.00;;
4525;SDS011;2275;52.208;8.804;2022-07-23T10:14:07;5.60;;;2.53;;
4525;SDS011;2275;52.208;8.804;2022-07-23T10:16:35;6.93;;;2.93;;
4525;SDS011;2275;52.208;8.804;2022-07-23T10:19:02;4.83;;;2.80;;
4525;SDS011;2275;52.208;8.804;2022-07-23T10:21:34;4.90;;;2.50;;
4525;SDS011;2275;52.208;8.804;2022-07-23T10:24:10;2.80;;;2.10;;
4525;SDS011;2275;52.208;8.804;2022-07-23T10:26:46;8.27;;;2.63;;
4525;SDS011;2275;52.208;8.804;2022-07-23T10:29:34;6.70;;;2.70;;
4525;SDS011;2275;52.208;8.804;2022-07-23T10:32:14;5.43;;;2.90;;
4525;SDS011;2275;52.208;8.804;2022-07-23T10:34:47;4.03;;;2.40;;
4525;SDS011;2275;52.208;8.804;2022-07-23T10:37:25;4.00;;;2.37;;
4525;SDS011;2275;52.208;8.804;2022-07-23T10:42:33;3.50;;;1.90;;
4525;SDS011;2275;52.208;8.804;2022-07-23T10:44:58;4.23;;;2.30;;
4525;SDS011;2275;52.208;8.804;2022-07-23T10:47:32;3.33;;;2.00;;
4525;SDS011;2275;52.208;8.804;2022-07-23T10:52:42;3.87;;;2.37;;
4525;SDS011;2275;52.208;8.804;2022-07-23T10:55:41;3.43;;;2.20;;
4525;SDS011;2275;52.208;8.804;2022-07-23T10:58:06;3.17;;;2.20;;
4525;SDS011;2275;52.208;8.804;2022-07-23T11:00:34;3.57;;;2.10;;
4525;SDS011;2275;52.208;8.804;2022-07-23T11:03:02;7.97;;;2.70;;
4525;SDS011;2275;52.208;8.804;2022-07-23T11:08:13;4.23;;;2.10;;
4525;SDS011;2275;52.208;8.804;2022-07-23T11:10:43;2.63;;;1.90;;
4525;SDS011;2275;52.208;8.804;2022-07-23T11:16:04;4.80;;;2.50;;
4525;SDS011;2275;52.208;8.804;2022-07-23T11:24:11;3.87;;;2.43;;
4525;SDS011;2275;52.208;8.804;2022-07-23T11:26:43;4.63;;;2.90;;
4525;SDS011;2275;52.208;8.804;2022-07-23T11:31:51;4.43;;;2.70;;
4525;SDS011;2275;52.208;8.804;2022-07-23T11:36:56;6.50;;;2.40;;
4525;SDS011;2275;52.208;8.804;2022-07-23T11:39:24;8.23;;;2.10;;
4525;SDS011;2275;52.208;8.804;2022-07-23T11:41:51;3.80;;;2.20;;
4525;SDS011;2275;52.208;8.804;2022-07-23T11:44:25;3.77;;;2.30;;
4525;SDS011;2275;52.208;8.804;2022-07-23T11:46:56;3.00;;;2.03;;
4525;SDS011;2275;52.208;8.804;2022-07-23T11:49:22;6.87;;;2.60;;
4525;SDS011;2275;52.208;8.804;2022-07-23T11:54:29;2.60;;;2.00;;
4525;SDS011;2275;52.208;8.804;2022-07-23T11:56:57;4.50;;;2.30;;
4525;SDS011;2275;52.208;8.804;2022-07-23T12:02:31;6.40;;;2.63;;
4525;SDS011;2275;52.208;8.804;2022-07-23T12:04:59;4.20;;;2.30;;
4525;SDS011;2275;52.208;8.804;2022-07-23T12:07:34;3.27;;;2.10;;
4525;SDS011;2275;52.208;8.804;2022-07-23T12:12:55;2.90;;;2.20;;
4525;SDS011;2275;52.208;8.804;2022-07-23T12:15:23;5.10;;;2.20;;
4525;SDS011;2275;52.208;8.804;2022-07-23T12:17:53;7.13;;;2.20;;
4525;SDS011;2275;52.208;8.804;2022-07-23T12:20:22;5.30;;;2.40;;
4525;SDS011;2275;52.208;8.804;2022-07-23T12:22:52;4.70;;;2.50;;
4525;SDS011;2275;52.208;8.804;2022-07-23T12:25:19;4.70;;;2.40;;
4525;SDS011;2275;52.208;8.804;2022-07-23T12:27:58;4.37;;;2.60;;
4525;SDS011;2275;52.208;8.804;2022-07-23T12:30:16;4.60;;;2.40;;
4525;SDS011;2275;52.208;8.804;2022-07-23T12:32:44;3.47;;;2.20;;
4525;SDS011;2275;52.208;8.804;2022-07-23T12:35:11;3.43;;;2.30;;
4525;SDS011;2275;52.208;8.804;2022-07-23T12:37:38;3.07;;;2.17;;
4525;SDS011;2275;52.208;8.804;2022-07-23T12:42:49;4.70;;;2.57;;
4525;SDS011;2275;52.208;8.804;2022-07-23T12:45:41;5.90;;;2.67;;
4525;SDS011;2275;52.208;8.804;2022-07-23T12:48:04;4.60;;;2.60;;
4525;SDS011;2275;52.208;8.804;2022-07-23T12:50:34;3.17;;;2.20;;
4525;SDS011;2275;52.208;8.804;2022-07-23T12:53:03;5.27;;;2.67;;
4525;SDS011;2275;52.208;8.804;2022-07-23T12:55:30;3.20;;;2.17;;
4525;SDS011;2275;52.208;8.804;2022-07-23T12:58:03;3.97;;;2.47;;
4525;SDS011;2275;52.208;8.804;2022-07-23T13:00:31;3.63;;;2.20;;
4525;SDS011;2275;52.208;8.804;2022-07-23T13:02:58;3.90;;;2.13;;
4525;SDS011;2275;52.208;8.804;2022-07-23T13:05:25;5.70;;;2.07;;
4525;SDS011;2275;52.208;8.804;2022-07-23T13:07:52;3.93;;;2.00;;
4525;SDS011;2275;52.208;8.804;2022-07-23T13:10:19;5.50;;;2.10;;
4525;SDS011;2275;52.208;8.804;2022-07-23T13:12:46;3.57;;;1.90;;
4525;SDS011;2275;52.208;8.804;2022-07-23T13:15:13;4.00;;;2.10;;
4525;SDS011;2275;52.208;8.804;2022-07-23T13:17:40;3.57;;;1.90;;
4525;SDS011;2275;52.208;8.804;2022-07-23T13:20:08;2.87;;;2.10;;
4525;SDS011;2275;52.208;8.804;2022-07-23T13:22:35;2.43;;;1.70;;
4525;SDS011;2275;52.208;8.804;2022-07-23T13:25:07;3.43;;;2.10;;
4525;SDS011;2275;52.208;8.804;2022-07-23T13:27:35;3.93;;;2.10;;
4525;SDS011;2275;52.208;8.804;2022-07-23T13:30:02;2.80;;;2.27;;
4525;SDS011;2275;52.208;8.804;2022-07-23T13:32:31;5.23;;;2.17;;
4525;SDS011;2275;52.208;8.804;2022-07-23T13:35:04;4.47;;;2.10;;
4525;SDS011;2275;52.208;8.804;2022-07-23T13:37:32;3.73;;;2.43;;
4525;SDS011;2275;52.208;8.804;2022-07-23T13:39:59;3.40;;;1.73;;
4525;SDS011;2275;52.208;8.804;2022-07-23T13:42:26;2.87;;;1.83;;
4525;SDS011;2275;52.208;8.804;2022-07-23T13:44:55;7.83;;;4.27;;
4525;SDS011;2275;52.208;8.804;2022-07-23T13:47:22;2.60;;;1.80;;
4525;SDS011;2275;52.208;8.804;2022-07-23T13:49:50;3.47;;;2.43;;
4525;SDS011;2275;52.208;8.804;2022-07-23T13:52:17;2.80;;;2.03;;
4525;SDS011;2275;52.208;8.804;2022-07-23T13:54:44;3.17;;;2.00;;
4525;SDS011;2275;52.208;8.804;2022-07-23T13:57:11;3.53;;;2.30;;
4525;SDS011;2275;52.208;8.804;2022-07-23T13:59:39;3.13;;;1.70;;
4525;SDS011;2275;52.208;8.804;2022-07-23T14:02:05;2.90;;;1.83;;
4525;SDS011;2275;52.208;8.804;2022-07-23T14:04:33;2.63;;;1.90;;
4525;SDS011;2275;52.208;8.804;2022-07-23T14:07:05;3.37;;;2.20;;
4525;SDS011;2275;52.208;8.804;2022-07-23T14:09:34;3.33;;;2.27;;
4525;SDS011;2275;52.208;8.804;2022-07-23T14:12:01;2.33;;;1.73;;
4525;SDS011;2275;52.208;8.804;2022-07-23T14:14:29;2.63;;;1.73;;
4525;SDS011;2275;52.208;8.804;2022-07-23T14:16:56;4.10;;;1.90;;
4525;SDS011;2275;52.208;8.804;2022-07-23T14:19:27;3.93;;;2.17;;
4525;SDS011;2275;52.208;8.804;2022-07-23T14:22:08;3.97;;;2.43;;
4525;SDS011;2275;52.208;8.804;2022-07-23T14:24:35;3.13;;;2.00;;
4525;SDS011;2275;52.208;8.804;2022-07-23T14:27:02;2.33;;;1.70;;
4525;SDS011;2275;52.208;8.804;2022-07-23T14:29:29;3.47;;;1.87;;
4525;SDS011;2275;52.208;8.804;2022-07-23T14:31:57;3.30;;;1.83;;
4525;SDS011;2275;52.208;8.804;2022-07-23T14:34:25;5.70;;;4.67;;
4525;SDS011;2275;52.208;8.804;2022-07-23T14:36:52;2.73;;;1.77;;
4525;SDS011;2275;52.208;8.804;2022-07-23T14:39:22;4.87;;;1.80;;
4525;SDS011;2275;52.208;8.804;2022-07-23T14:41:49;2.60;;;2.07;;
4525;SDS011;2275;52.208;8.804;2022-07-23T14:44:17;4.47;;;2.07;;
4525;SDS011;2275;52.208;8.804;2022-07-23T14:46:45;3.17;;;1.70;;
4525;SDS011;2275;52.208;8.804;2022-07-23T14:49:15;2.90;;;2.10;;
4525;SDS011;2275;52.208;8.804;2022-07-23T14:51:42;3.07;;;1.63;;
4525;SDS011;2275;52.208;8.804;2022-07-23T14:54:10;4.83;;;2.00;;
4525;SDS011;2275;52.208;8.804;2022-07-23T14:56:36;6.30;;;2.13;;
4525;SDS011;2275;52.208;8.804;2022-07-23T14:59:04;2.90;;;2.07;;
4525;SDS011;2275;52.208;8.804;2022-07-23T15:01:32;3.33;;;2.13;;
4525;SDS011;2275;52.208;8.804;2022-07-23T15:03:58;2.80;;;1.90;;
4525;SDS011;2275;52.208;8.804;2022-07-23T15:06:25;2.90;;;1.90;;
4525;SDS011;2275;52.208;8.804;2022-07-23T15:08:53;2.60;;;1.67;;
4525;SDS011;2275;52.208;8.804;2022-07-23T15:11:20;2.60;;;1.90;;
4525;SDS011;2275;52.208;8.804;2022-07-23T15:13:47;3.07;;;2.00;;
4525;SDS011;2275;52.208;8.804;2022-07-23T15:16:15;3.07;;;2.07;;
4525;SDS011;2275;52.208;8.804;2022-07-23T15:18:42;3.23;;;2.43;;
4525;SDS011;2275;52.208;8.804;2022-07-23T15:21:10;3.40;;;2.17;;
4525;SDS011;2275;52.208;8.804;2022-07-23T15:23:38;5.20;;;2.23;;
4525;SDS011;2275;52.208;8.804;2022-07-23T15:26:05;4.37;;;2.00;;
4525;SDS011;2275;52.208;8.804;2022-07-23T15:28:33;4.73;;;1.90;;
4525;SDS011;2275;52.208;8.804;2022-07-23T15:31:00;7.10;;;3.20;;
4525;SDS011;2275;52.208;8.804;2022-07-23T15:33:27;3.13;;;2.10;;
4525;SDS011;2275;52.208;8.804;2022-07-23T15:35:55;3.00;;;2.70;;
4525;SDS011;2275;52.208;8.804;2022-07-23T15:38:22;5.83;;;3.10;;
4525;SDS011;2275;52.208;8.804;2022-07-23T15:40:49;3.27;;;2.80;;